»·PEaware :: AAL614 KDFW-MMMX

AAL614 :: KDFW-MMMX

FLIGHT INFORMATION

Flight Status: Arrived
Operator:
American Airlines
More flights by this operator :: More flights under this callsign
Pilot: John H. (7647)
Aircraft: BOEING 737-800
(B738)
More flights by this aircraft type
Origin: KDFW Dallas-Ft Worth Intl
United States
Destination: MMMX Lic Benito Juarez Intl
Mexico
More flights between these airports :: More routes between these airports
Route: JPOOL9 SAT J21 LRD/N0456F350 J21 TMN UJ35 AVSAR AVSA3B
File this flight plan on PilotEdge
Remarks: PBN / A1B1C1D1S1S2 DOF / 180922 REG / N806SB EET / KZHU0019 MMTY0056 MMEX0124 OPR / AAL PER / C RMK / TCAS SIMBRIEF
Altitude:
(Current/Filed)
34,000ft
Speed:
(Current/Filed)
455kts
Departed: 22-Sep-18 10:00 AM
Arrived: 22-Sep-18 12:17 PM
Distance/Time
Traveled:
815nm/2:17
Distance/Time
To Go:
Arrived

Flight Plot

Page will automatically refresh every two minutes.

Flight plan parsing failed; only flown route is shown


Map Options




Map Legend


Flown Route
Filed Route
Departure Airport
Arrival Airport
Navaid (VOR, NDB)
Fix

Horizontal Profiles

Position Reports

Time Latitude Longitude Heading Altitude Ground
Speed
22-Sep-18 09:43 32.900031 -97.042637 177 593ft 0kts
22-Sep-18 09:44 32.900031 -97.042637 177 593ft 0kts
22-Sep-18 09:45 32.900031 -97.042637 177 593ft 0kts
22-Sep-18 09:46 32.900190 -97.042644 177 594ft 2kts
22-Sep-18 09:47 32.900642 -97.043048 106 595ft 2kts
22-Sep-18 09:48 32.900812 -97.043723 95 597ft 2kts
22-Sep-18 09:49 32.900816 -97.044428 90 599ft 2kts
22-Sep-18 09:50 32.900818 -97.045139 90 602ft 2kts
22-Sep-18 09:51 32.900819 -97.045851 90 603ft 2kts
22-Sep-18 09:52 32.900820 -97.046551 90 604ft 2kts
22-Sep-18 09:53 32.900794 -97.047191 69 606ft 2kts
22-Sep-18 09:54 32.900544 -97.047554 30 606ft 0kts
22-Sep-18 09:55 32.900709 -97.047535 344 606ft 2kts
22-Sep-18 09:56 32.899868 -97.047625 176 606ft 8kts
22-Sep-18 09:57 32.896262 -97.047659 180 600ft 18kts
22-Sep-18 09:58 32.889734 -97.047683 179 584ft 29kts
22-Sep-18 09:59 32.883842 -97.048076 180 573ft 17kts
22-Sep-18 10:00 32.879143 -97.048595 254 568ft 16kts
22-Sep-18 10:01 32.882245 -97.050921 0 570ft 33kts
22-Sep-18 10:02 32.914034 -97.050854 357 1328ft 147kts
22-Sep-18 10:03 32.952344 -97.069927 294 1758ft 178kts
22-Sep-18 10:04 32.912486 -97.093437 139 2765ft 262kts
22-Sep-18 10:05 32.850765 -97.046561 177 5387ft 284kts
22-Sep-18 10:06 32.776332 -97.062292 193 7950ft 294kts
22-Sep-18 10:07 32.694903 -97.083132 189 10279ft 314kts
22-Sep-18 10:08 32.608422 -97.104906 190 12940ft 315kts
22-Sep-18 10:09 32.523527 -97.126082 193 15433ft 316kts
22-Sep-18 10:10 32.437179 -97.147594 194 17575ft 323kts
22-Sep-18 10:11 32.352035 -97.168781 195 19408ft 331kts
22-Sep-18 10:12 32.260762 -97.189490 190 21155ft 341kts
22-Sep-18 10:13 32.166152 -97.202274 190 22756ft 350kts
22-Sep-18 10:14 32.068296 -97.215329 191 24225ft 358kts
22-Sep-18 10:15 31.968917 -97.228558 191 25646ft 364kts
22-Sep-18 10:16 31.873264 -97.241292 191 26881ft 369kts
22-Sep-18 10:17 31.771907 -97.254770 192 28111ft 375kts
22-Sep-18 10:18 31.667801 -97.268910 196 29256ft 378kts
22-Sep-18 10:19 31.582705 -97.305398 207 30277ft 373kts
22-Sep-18 10:20 31.489058 -97.349864 206 31623ft 366kts
22-Sep-18 10:21 31.395798 -97.393884 206 32676ft 364kts
22-Sep-18 10:22 31.303040 -97.437516 206 33612ft 363kts
22-Sep-18 10:23 31.208956 -97.481704 206 34020ft 375kts
22-Sep-18 10:24 31.127767 -97.519783 206 34018ft 395kts
22-Sep-18 10:25 31.024976 -97.567781 206 34016ft 403kts
22-Sep-18 10:26 30.921659 -97.615913 206 34037ft 403kts
22-Sep-18 10:27 30.826924 -97.660004 205 34056ft 403kts
22-Sep-18 10:28 30.723956 -97.707590 205 34051ft 403kts
22-Sep-18 10:29 30.620624 -97.755221 205 34048ft 403kts
22-Sep-18 10:30 30.522362 -97.814421 215 34049ft 398kts
22-Sep-18 10:31 30.429978 -97.883445 215 34048ft 398kts
22-Sep-18 10:32 30.337657 -97.952033 215 34019ft 397kts
22-Sep-18 10:33 30.245088 -98.020473 215 34043ft 397kts
22-Sep-18 10:34 30.152785 -98.088590 215 34018ft 397kts
22-Sep-18 10:35 30.060150 -98.156781 215 34014ft 398kts
22-Sep-18 10:36 29.967562 -98.224772 215 34014ft 398kts
22-Sep-18 10:37 29.877588 -98.290698 215 34023ft 398kts
22-Sep-18 10:38 29.784719 -98.358579 215 34020ft 398kts
22-Sep-18 10:39 29.692403 -98.425902 214 34048ft 397kts
22-Sep-18 10:40 29.595707 -98.484407 205 34043ft 402kts
22-Sep-18 10:41 29.493352 -98.530177 205 34043ft 401kts
22-Sep-18 10:42 29.390534 -98.576211 205 34041ft 401kts
22-Sep-18 10:43 29.286687 -98.622704 205 33941ft 414kts
22-Sep-18 10:44 29.183923 -98.668608 204 33940ft 419kts
22-Sep-18 10:45 29.076430 -98.716486 203 33932ft 422kts
22-Sep-18 10:46 28.969265 -98.764121 204 34014ft 419kts
22-Sep-18 10:47 28.863718 -98.810986 204 34025ft 419kts
22-Sep-18 10:48 28.756285 -98.858615 204 34024ft 420kts
22-Sep-18 10:49 28.648866 -98.906144 204 34023ft 420kts
22-Sep-18 10:50 28.541752 -98.953456 204 34050ft 421kts
22-Sep-18 10:51 28.433565 -99.001120 204 34042ft 418kts
22-Sep-18 10:52 28.325711 -99.048559 204 34046ft 421kts
22-Sep-18 10:53 28.217742 -99.095944 204 34043ft 421kts
22-Sep-18 10:54 28.109725 -99.143283 204 34042ft 421kts
22-Sep-18 10:55 28.001790 -99.190456 204 34044ft 422kts
22-Sep-18 10:56 27.894668 -99.237173 204 34044ft 422kts
22-Sep-18 10:57 27.787821 -99.283692 204 34048ft 422kts
22-Sep-18 10:58 27.679290 -99.330828 204 34046ft 422kts
22-Sep-18 10:59 27.570862 -99.377838 204 34040ft 422kts
22-Sep-18 11:00 27.459226 -99.413347 184 34053ft 433kts
22-Sep-18 11:01 27.340248 -99.397405 176 34043ft 438kts
22-Sep-18 11:02 27.221338 -99.378690 176 34042ft 438kts
22-Sep-18 11:03 27.102251 -99.360102 176 34017ft 438kts
22-Sep-18 11:04 26.982961 -99.341656 176 34014ft 438kts
22-Sep-18 11:05 26.867910 -99.327346 179 34020ft 436kts
22-Sep-18 11:06 26.748260 -99.316449 179 34020ft 436kts
22-Sep-18 11:07 26.628770 -99.305504 180 34019ft 436kts
22-Sep-18 11:08 26.515074 -99.295177 180 34021ft 436kts
22-Sep-18 11:09 26.395940 -99.283370 178 34012ft 437kts
22-Sep-18 11:10 26.282001 -99.269389 178 34018ft 437kts
22-Sep-18 11:11 26.163385 -99.254796 178 34017ft 437kts
22-Sep-18 11:12 26.063974 -99.242551 178 34024ft 438kts
22-Sep-18 11:13 25.924615 -99.225517 178 34044ft 438kts
22-Sep-18 11:14 25.810585 -99.211580 178 34048ft 437kts
22-Sep-18 11:15 25.711882 -99.199542 178 34048ft 437kts
22-Sep-18 11:16 25.572883 -99.182598 178 33993ft 438kts
22-Sep-18 11:17 25.473299 -99.170509 178 33992ft 438kts
22-Sep-18 11:18 25.333612 -99.153598 178 33990ft 437kts
22-Sep-18 11:19 25.233887 -99.141544 178 33991ft 438kts
22-Sep-18 11:20 25.098522 -99.125230 178 34043ft 437kts
22-Sep-18 11:21 25.005639 -99.114015 178 34050ft 423kts
22-Sep-18 11:22 24.877662 -99.098638 178 34051ft 424kts
22-Sep-18 11:23 24.781520 -99.087011 177 34045ft 424kts
22-Sep-18 11:24 24.668545 -99.073477 178 34015ft 424kts
22-Sep-18 11:25 24.551764 -99.059625 178 34017ft 422kts
22-Sep-18 11:26 24.436431 -99.045709 178 34020ft 422kts
22-Sep-18 11:27 24.321031 -99.032031 178 34017ft 421kts
22-Sep-18 11:28 24.205239 -99.018186 177 34019ft 422kts
22-Sep-18 11:29 24.089928 -99.004485 178 34015ft 421kts
22-Sep-18 11:30 23.975182 -98.990905 178 34016ft 419kts
22-Sep-18 11:31 23.864085 -98.977792 177 34020ft 418kts
22-Sep-18 11:32 23.749344 -98.964233 178 34026ft 418kts
22-Sep-18 11:33 23.634646 -98.952155 179 34025ft 416kts
22-Sep-18 11:34 23.520622 -98.941715 179 34021ft 416kts
22-Sep-18 11:35 23.406550 -98.931325 178 34019ft 415kts
22-Sep-18 11:36 23.292572 -98.920923 179 34021ft 415kts
22-Sep-18 11:37 23.179086 -98.910592 178 34026ft 408kts
22-Sep-18 11:38 23.070364 -98.900737 177 34016ft 400kts
22-Sep-18 11:39 22.960600 -98.890791 177 34013ft 398kts
22-Sep-18 11:40 22.854935 -98.881273 177 34027ft 400kts
22-Sep-18 11:41 22.745763 -98.871311 177 34036ft 394kts
22-Sep-18 11:42 22.636533 -98.861486 177 34024ft 398kts
22-Sep-18 11:43 22.527562 -98.851645 177 33996ft 397kts
22-Sep-18 11:44 22.418455 -98.841816 177 33993ft 397kts
22-Sep-18 11:45 22.309628 -98.832027 177 33992ft 397kts
22-Sep-18 11:46 22.200441 -98.822218 177 33990ft 397kts
22-Sep-18 11:47 22.091499 -98.812447 177 33988ft 397kts
22-Sep-18 11:48 21.984074 -98.811897 186 33986ft 395kts
22-Sep-18 11:49 21.883304 -98.822323 185 33999ft 389kts
22-Sep-18 11:50 21.776343 -98.833089 186 33998ft 394kts
22-Sep-18 11:51 21.669001 -98.843767 186 33997ft 394kts
22-Sep-18 11:52 21.561243 -98.854401 186 33995ft 394kts
22-Sep-18 11:53 21.455513 -98.864801 186 33994ft 393kts
22-Sep-18 11:54 21.349585 -98.875208 186 33992ft 393kts
22-Sep-18 11:55 21.243508 -98.885616 185 33993ft 392kts
22-Sep-18 11:56 21.138401 -98.895900 185 33988ft 393kts
22-Sep-18 11:57 21.033944 -98.906091 185 33986ft 388kts
22-Sep-18 11:58 20.928911 -98.916330 185 33986ft 388kts
22-Sep-18 11:59 20.847009 -98.924334 186 33083ft 389kts
22-Sep-18 12:00 20.741521 -98.934566 187 30108ft 391kts
22-Sep-18 12:01 20.635216 -98.944894 186 28540ft 402kts
22-Sep-18 12:02 20.523942 -98.955443 186 26964ft 410kts
22-Sep-18 12:03 20.415712 -98.965671 186 25413ft 372kts
22-Sep-18 12:04 20.318696 -98.974842 186 24062ft 347kts
22-Sep-18 12:05 20.228061 -98.983388 187 22784ft 319kts
22-Sep-18 12:06 20.143479 -98.991471 186 21637ft 309kts
22-Sep-18 12:07 20.060070 -98.999424 187 20169ft 297kts
22-Sep-18 12:08 19.979332 -99.007132 187 18763ft 298kts
22-Sep-18 12:09 19.901605 -99.014512 187 17416ft 291kts
22-Sep-18 12:10 19.831740 -99.021141 187 16205ft 284kts
22-Sep-18 12:11 19.754815 -99.027704 178 14557ft 282kts
22-Sep-18 12:12 19.688817 -98.992458 152 13196ft 252kts
22-Sep-18 12:13 19.634720 -98.953586 154 12058ft 227kts
22-Sep-18 12:14 19.578377 -98.933413 164 10860ft 224kts
22-Sep-18 12:15 19.517328 -98.931675 212 9706ft 224kts
22-Sep-18 12:16 19.485827 -98.980750 237 8800ft 183kts
22-Sep-18 12:17 19.461081 -99.025056 236 7992ft 171kts
22-Sep-18 12:18 19.437141 -99.067707 238 7334ft 168kts
22-Sep-18 12:19 19.429681 -99.081142 245 7341ft 0kts

Navigation Log

Ident Type
Flight plan parsing failed, navigation log unavailable